EW5380 Weather Reports


Display with metric or nautical units.
time (UTC)temp
F
wind
direction
speed
MPH
gust
MPH
rain 1hr
in
rain 24hr
in
rain mn
in
humidity
%
barometer
mb
20181211024155 33 274 0.0 2.0 0.00 0.89 0.80 88 1019.2
20181211022644 33 274 0.0 2.0 0.00 0.90 0.80 89 1019.2
20181211021144 33 254 0.0 0.0 0.01 0.90 0.80 89 1019.2
20181211015644 33 254 0.0 1.0 0.01 0.91 0.80 89 1019.2
20181211014145 33 254 0.0 1.0 0.01 0.92 0.80 89 1019.2
20181211012626 33 254 0.0 5.0 0.01 0.93 0.80 90 1019.2
20181211011124 33 253 0.0 5.0 0.00 0.93 0.79 90 1019.1
20181211005625 34 259 0.0 2.0 0.00 0.93 0.79 90 1019.0
20181211004116 34 259 0.0 0.0 0.01 0.94 0.79 90 1018.9
20181211002616 35 259 0.0 2.0 0.01 0.94 0.79 90 1018.7
20181211001057 35 259 0.0 0.0 0.01 0.95 0.79 90 1018.6
20181210235554 36 259 0.0 0.0 0.01 0.95 0.79 90 1018.5
20181210234053 36 259 0.0 0.0 0.01 0.95 0.78 90 1018.3
20181210232534 36 259 0.0 0.0 0.02 0.95 0.78 90 1018.2
20181210231033 37 259 0.0 0.0 0.02 0.95 0.78 90 1018.0
20181210225530 37 259 0.0 0.0 0.02 0.96 0.78 90 1017.8
20181210224028 37 259 0.0 0.0 0.02 0.95 0.77 90 1017.8
20181210222527 37 259 0.0 0.0 0.02 0.94 0.76 90 1017.7
20181210221025 37 259 0.0 0.0 0.02 0.94 0.76 90 1017.6
20181210215525 38 259 0.0 0.0 0.04 0.95 0.76 90 1017.4
20181210214005 38 259 0.0 0.0 0.03 0.94 0.75 90 1017.3
20181210212506 38 259 0.0 0.0 0.04 0.93 0.74 90 1017.0
20181210210956 38 259 0.0 0.0 0.05 0.93 0.74 90 1016.8
20181210205456 38 259 0.0 0.0 0.04 0.91 0.72 90 1016.6
20181210203955 38 259 0.0 0.0 0.06 0.91 0.72 90 1016.2
20181210202454 38 259 0.0 0.0 0.06 0.90 0.70 90 1016.0
20181210200953 38 259 0.0 0.0 0.06 0.89 0.69 90 1016.1
20181210195455 38 259 0.0 0.0 0.07 0.88 0.68 90 1016.0
20181210193950 38 259 0.0 0.0 0.07 0.86 0.66 90 1016.1
20181210192452 37 259 0.0 0.0 0.07 0.84 0.64 90 1016.2
20181210190933 37 259 0.0 0.0 0.08 0.83 0.63 91 1016.4
20181210185433 37 259 0.0 0.0 0.07 0.81 0.61 91 1016.2
20181210183920 37 259 0.0 0.0 0.07 0.79 0.59 91 1016.3
20181210182421 37 259 0.0 0.0 0.06 0.77 0.57 91 1016.4
20181210180856 37 259 0.0 0.0 0.09 0.75 0.55 91 1016.6
20181210175353 36 259 0.0 0.0 0.11 0.74 0.54 91 1016.4
20181210173854 36 259 0.0 0.0 0.10 0.72 0.52 91 1016.7
20181210172331 36 259 0.0 0.0 0.10 0.71 0.51 91 1016.7
20181210170831 36 259 0.0 0.0 0.06 0.66 0.46 91 1016.8
20181210165331 36 259 0.0 0.0 0.05 0.63 0.44 91 1016.8
20181210163831 36 259 0.0 0.0 0.04 0.62 0.42 91 1016.8
20181210162331 36 259 0.0 1.0 0.04 0.61 0.41 91 1016.7
20181210160830 35 259 0.0 3.0 0.04 0.60 0.40 91 1017.0
20181210155327 35 259 0.0 0.0 0.02 0.58 0.38 91 1017.1
20181210153826 34 259 0.0 0.0 0.03 0.58 0.38 91 1017.0
20181210152325 34 259 0.0 0.0 0.02 0.57 0.37 91 1017.1
20181210150804 34 259 0.0 0.0 0.02 0.56 0.36 91 1017.2
20181210145302 33 259 0.0 0.0 0.02 0.56 0.36 91 1017.2
20181210143801 33 259 0.0 0.0 0.02 0.55 0.35 91 1017.0
20181210142243 33 259 0.0 0.0 0.02 0.55 0.35 91 1016.9
20181210140719 33 259 0.0 0.0 0.02 0.54 0.34 91 1016.8
20181210135157 33 259 0.0 0.0 0.02 0.54 0.34 91 1016.6
20181210133642 33 259 0.0 0.0 0.02 0.53 0.33 91 1016.6
20181210132141 33 259 0.0 0.0 0.03 0.53 0.33 91 1016.4
20181210130640 33 259 0.0 0.0 0.02 0.52 0.32 91 1016.4
20181210125123 33 259 0.0 0.0 0.03 0.52 0.32 91 1016.3
20181210123622 33 259 0.0 0.0 0.03 0.51 0.31 91 1016.2
20181210122121 33 259 0.0 0.0 0.03 0.50 0.30 91 1016.1
20181210120612 33 259 0.0 0.0 0.04 0.50 0.30 91 1016.0
20181210115111 33 259 0.0 0.0 0.03 0.49 0.29 91 1015.9
20181210113611 33 259 0.0 0.0 0.04 0.48 0.28 91 1015.6
20181210112047 33 259 0.0 0.0 0.04 0.47 0.27 91 1015.3
20181210110538 33 259 0.0 0.0 0.04 0.46 0.26 91 1015.0
20181210105020 33 259 0.0 1.0 0.05 0.46 0.26 91 1014.8
20181210103501 33 259 0.0 0.0 0.04 0.44 0.24 91 1014.6
20181210101939 33 259 0.0 1.0 0.04 0.43 0.23 91 1014.3
20181210100424 33 259 0.0 1.0 0.04 0.42 0.22 91 1014.0
20181210094859 34 259 0.0 0.0 0.05 0.41 0.21 91 1013.8
20181210093355 34 259 0.0 2.0 0.05 0.40 0.20 91 1013.6
20181210091851 33 261 0.0 2.0 0.04 0.38 0.18 91 1013.5
20181210090349 33 261 0.0 0.0 0.05 0.38 0.18 91 1013.4
20181210084852 33 261 0.0 3.0 0.04 0.36 0.16 90 1013.5
20181210083336 34 261 0.0 0.0 0.05 0.35 0.15 90 1013.8
20181210081836 34 261 0.0 0.0 0.05 0.34 0.14 90 1013.5
20181210080335 34 261 0.0 2.0 0.05 0.33 0.13 90 1013.4
20181210074811 34 261 0.0 2.0 0.05 0.32 0.12 90 1013.2
20181210073255 34 261 0.0 4.0 0.04 0.30 0.10 90 1013.3
20181210071733 35 261 0.0 2.0 0.04 0.29 0.09 90 1013.3
20181210070208 35 261 0.0 2.0 0.04 0.28 0.08 90 1013.2
20181210064647 35 261 0.0 2.0 0.04 0.27 0.07 90 1013.1
20181210063126 35 261 0.0 1.0 0.04 0.26 0.06 90 1013.2
20181210061607 35 261 0.0 1.0 0.04 0.25 0.05 90 1013.1
20181210060101 35 128 0.0 2.0 0.04 0.24 0.04 90 1013.1
20181210054552 36 124 0.0 6.0 0.04 0.23 0.03 90 1013.1
20181210053053 35 105 1.0 6.0 0.04 0.22 0.02 90 1013.2
20181210051535 35 144 2.0 7.0 0.04 0.21 0.01 90 1013.1
20181210050035 35 115 3.0 9.0 0.04 0.20 0.00 89 1013.2
20181210044535 35 98 4.0 11.0 0.04 0.19 0.19 89 1013.2
20181210043016 35 101 3.0 12.0 0.04 0.18 0.18 90 1013.3
20181210041515 35 110 3.0 12.0 0.04 0.17 0.17 89 1013.4
20181210040015 35 131 2.0 13.0 0.04 0.16 0.16 89 1013.4
20181210034515 35 132 2.0 8.0 0.03 0.15 0.15 89 1013.6
20181210033015 35 113 3.0 10.0 0.03 0.14 0.14 89 1013.5
20181210031503 35 112 3.0 12.0 0.03 0.13 0.13 89 1013.4
20181210030002 35 94 3.0 10.0 0.03 0.12 0.12 89 1013.4